createdAt,value
2023-01-12T00:00:37.137Z,74.90
2023-01-12T00:03:19.003Z,78.00
2023-01-12T00:05:47.225Z,57.40
2023-01-12T00:08:15.457Z,50.90
2023-01-12T00:10:43.660Z,41.00
2023-01-12T00:13:11.795Z,40.30
2023-01-12T00:15:58.685Z,38.80
2023-01-12T00:18:26.873Z,30.60
2023-01-12T00:20:55.177Z,24.60
2023-01-12T00:23:26.502Z,30.30
2023-01-12T00:25:54.697Z,38.40
2023-01-12T00:28:22.985Z,42.60
2023-01-12T00:30:51.119Z,35.20
2023-01-12T00:33:20.200Z,35.80
2023-01-12T00:35:48.417Z,23.50
2023-01-12T00:38:16.636Z,21.40
2023-01-12T00:40:46.745Z,22.50
2023-01-12T00:43:33.686Z,15.50
2023-01-12T00:46:01.956Z,24.10
2023-01-12T00:48:31.007Z,18.30
2023-01-12T00:51:04.005Z,20.00
2023-01-12T00:53:32.232Z,18.80
2023-01-12T00:56:04.505Z,16.30
2023-01-12T00:58:32.765Z,17.40
2023-01-12T01:01:09.133Z,16.80
2023-01-12T01:03:37.476Z,13.50
2023-01-12T01:06:07.640Z,15.20
2023-01-12T01:08:37.544Z,18.80
2023-01-12T01:11:09.117Z,23.80
2023-01-12T01:13:40.731Z,27.30
2023-01-12T01:16:11.438Z,21.00
2023-01-12T01:18:40.811Z,15.60
2023-01-12T01:21:11.009Z,20.10
2023-01-12T01:23:39.663Z,21.90
2023-01-12T01:26:11.321Z,24.90
2023-01-12T01:28:40.294Z,21.30
2023-01-12T01:31:17.904Z,16.80
2023-01-12T01:33:46.772Z,15.70
2023-01-12T01:36:18.686Z,19.40
2023-01-12T01:38:48.825Z,15.30
2023-01-12T01:41:20.693Z,17.90
2023-01-12T01:43:54.452Z,15.20
2023-01-12T01:46:37.377Z,18.40
2023-01-12T01:50:21.447Z,19.80
2023-01-12T01:52:56.116Z,16.80
2023-01-12T01:55:34.111Z,18.00
2023-01-12T01:58:08.147Z,18.90
2023-01-12T02:00:39.068Z,17.80
2023-01-12T02:03:10.267Z,19.00
2023-01-12T02:05:43.473Z,16.10
2023-01-12T02:08:28.868Z,16.10
2023-01-12T02:13:49.082Z,19.10
2023-01-12T02:16:25.803Z,20.10
2023-01-12T02:19:28.246Z,19.80
2023-01-12T02:22:18.136Z,25.40
2023-01-12T02:25:14.123Z,27.60
2023-01-12T02:28:00.974Z,25.90
2023-01-12T02:30:57.123Z,26.00
2023-01-12T02:33:40.732Z,18.90
2023-01-12T02:36:15.143Z,22.80
2023-01-12T02:39:03.339Z,18.90
2023-01-12T02:42:54.502Z,15.20
2023-01-12T02:45:39.042Z,16.10
2023-01-12T02:48:12.030Z,18.30
2023-01-12T02:51:14.092Z,15.10
2023-01-12T02:53:48.919Z,12.30
2023-01-12T02:56:23.287Z,15.80
2023-01-12T02:58:56.956Z,13.20
2023-01-12T03:01:27.711Z,12.90
2023-01-12T03:04:01.500Z,16.10
2023-01-12T03:06:43.785Z,13.90
2023-01-12T03:09:16.838Z,14.10
2023-01-12T03:11:52.217Z,12.10
2023-01-12T03:14:22.584Z,12.80
2023-01-12T03:16:54.303Z,12.20
2023-01-12T03:19:29.834Z,14.70
2023-01-12T03:22:11.387Z,16.50
2023-01-12T03:24:48.142Z,12.20
2023-01-12T03:27:30.272Z,11.80
2023-01-12T03:30:02.388Z,12.90
2023-01-12T03:32:56.146Z,12.00
2023-01-12T03:35:28.079Z,12.60
2023-01-12T03:38:09.650Z,11.80
2023-01-12T03:40:44.483Z,12.30
2023-01-12T03:43:18.296Z,12.70
2023-01-12T03:45:49.268Z,9.60
2023-01-12T03:48:35.799Z,7.90
2023-01-12T03:51:12.321Z,10.00
2023-01-12T03:53:44.357Z,10.30
2023-01-12T03:56:14.384Z,10.10
2023-01-12T03:58:43.448Z,9.90
2023-01-12T04:01:11.974Z,12.50
2023-01-12T04:03:40.388Z,11.10
2023-01-12T04:06:08.963Z,12.20
2023-01-12T04:08:37.353Z,18.80
2023-01-12T04:11:26.953Z,22.00
2023-01-12T04:13:55.219Z,10.90
2023-01-12T04:16:23.469Z,12.50
2023-01-12T04:19:42.819Z,9.60
2023-01-12T04:22:34.250Z,9.10
2023-01-12T04:25:02.753Z,9.30
2023-01-12T04:27:41.142Z,9.10
2023-01-12T04:30:10.043Z,10.20
2023-01-12T04:32:38.474Z,9.90
2023-01-12T04:35:12.360Z,8.00
2023-01-12T04:37:41.104Z,6.10
2023-01-12T04:40:12.140Z,5.60
2023-01-12T04:43:02.339Z,5.70
2023-01-12T04:45:33.407Z,9.40
2023-01-12T04:48:08.696Z,6.40
2023-01-12T04:50:38.891Z,8.60
2023-01-12T04:53:12.053Z,5.30
2023-01-12T04:55:42.256Z,8.30
2023-01-12T04:58:11.175Z,5.60
2023-01-12T05:00:39.450Z,6.20
2023-01-12T05:03:07.685Z,8.00
2023-01-12T05:05:36.318Z,4.90
2023-01-12T05:08:25.128Z,5.60
2023-01-12T05:10:55.745Z,9.40
2023-01-12T05:13:54.312Z,5.00
2023-01-12T05:16:23.646Z,6.90
2023-01-12T05:18:53.512Z,7.50
2023-01-12T05:21:24.021Z,6.60
2023-01-12T05:23:53.153Z,5.40
2023-01-12T05:26:21.371Z,4.40
2023-01-12T05:28:51.000Z,5.70
2023-01-12T05:31:20.108Z,6.50
2023-01-12T05:33:48.410Z,6.00
2023-01-12T05:36:17.774Z,6.30
2023-01-12T05:38:46.337Z,6.70
2023-01-12T05:41:15.074Z,6.40
2023-01-12T05:43:50.258Z,7.30
2023-01-12T05:46:27.837Z,8.20
2023-01-12T05:48:58.033Z,6.70
2023-01-12T05:51:27.770Z,6.00
2023-01-12T05:53:55.943Z,5.80
2023-01-12T05:56:27.649Z,6.10
2023-01-12T05:58:58.929Z,6.20
2023-01-12T06:01:29.132Z,4.30
2023-01-12T06:04:01.833Z,4.80
2023-01-12T06:06:31.613Z,6.90
2023-01-12T06:09:01.219Z,6.60
2023-01-12T06:11:48.830Z,6.40
2023-01-12T06:14:17.385Z,7.20
2023-01-12T06:16:45.707Z,11.20
2023-01-12T06:19:13.951Z,28.90
2023-01-12T06:21:42.153Z,80.40
2023-01-12T06:24:10.576Z,37.30
2023-01-12T06:26:38.899Z,22.60
2023-01-12T06:29:07.301Z,25.20
2023-01-12T06:31:39.758Z,37.90
2023-01-12T06:34:08.674Z,18.40
2023-01-12T06:36:36.908Z,16.60
2023-01-12T06:39:12.196Z,12.20
2023-01-12T06:41:59.166Z,6.80
2023-01-12T06:44:27.391Z,9.10
2023-01-12T06:46:55.541Z,13.40
2023-01-12T06:49:23.816Z,12.00
2023-01-12T06:51:53.029Z,16.10
2023-01-12T06:54:22.239Z,12.10
2023-01-12T06:56:50.403Z,10.50
2023-01-12T06:59:18.603Z,9.40
2023-01-12T07:01:46.931Z,8.90
2023-01-12T07:04:15.249Z,12.10
2023-01-12T07:06:43.545Z,8.70
2023-01-12T07:09:11.850Z,10.10
2023-01-12T07:11:40.075Z,12.20
2023-01-12T07:14:09.318Z,25.90
2023-01-12T07:17:03.263Z,19.10
2023-01-12T07:19:37.319Z,15.70
2023-01-12T07:22:11.625Z,9.10
2023-01-12T07:24:57.612Z,10.40
2023-01-12T07:27:56.859Z,9.30
2023-01-12T07:30:26.853Z,17.70
2023-01-12T07:32:55.664Z,33.90
2023-01-12T07:35:47.970Z,24.70
2023-01-12T07:38:16.754Z,71.50
2023-01-12T07:41:02.894Z,85.70
2023-01-12T07:43:41.641Z,28.20
2023-01-12T07:46:37.598Z,16.40
2023-01-12T07:49:18.065Z,12.20
2023-01-12T07:52:12.238Z,11.10
2023-01-12T07:55:32.162Z,12.10
2023-01-12T07:58:24.428Z,29.30
2023-01-12T08:01:15.484Z,14.90
2023-01-12T08:04:21.035Z,10.40
2023-01-12T08:07:01.258Z,10.30
2023-01-12T08:09:38.748Z,7.30
2023-01-12T08:12:13.235Z,8.30
2023-01-12T08:14:51.737Z,7.90
2023-01-12T08:17:48.658Z,8.80
2023-01-12T08:20:33.970Z,10.20
2023-01-12T08:23:30.874Z,7.40
2023-01-12T08:26:28.578Z,6.70
2023-01-12T08:32:37.895Z,8.50
2023-01-12T08:36:03.221Z,14.10
2023-01-12T08:38:46.300Z,10.30
2023-01-12T08:41:42.378Z,11.40
2023-01-12T08:44:36.642Z,9.10
2023-01-12T08:47:34.461Z,11.90
2023-01-12T08:50:16.064Z,15.90
2023-01-12T08:53:12.022Z,23.40
2023-01-12T08:55:42.415Z,65.40
2023-01-12T08:58:35.282Z,29.50
2023-01-12T09:01:28.090Z,30.80
2023-01-12T09:04:11.798Z,14.90
2023-01-12T09:07:00.617Z,38.90
2023-01-12T09:10:59.345Z,29.90
2023-01-12T09:13:51.588Z,24.20
2023-01-12T09:16:39.360Z,15.20
2023-01-12T09:19:36.445Z,19.40
2023-01-12T09:22:15.727Z,12.40
2023-01-12T09:25:00.469Z,28.70
2023-01-12T09:27:50.506Z,18.50
2023-01-12T09:30:24.061Z,11.60
2023-01-12T09:32:56.563Z,29.70
2023-01-12T09:35:28.528Z,23.50
2023-01-12T09:38:12.433Z,51.20
2023-01-12T09:40:46.509Z,39.70
2023-01-12T09:43:50.857Z,23.30
2023-01-12T09:46:56.457Z,21.60
2023-01-12T09:49:43.610Z,20.40
2023-01-12T09:52:42.687Z,13.90
2023-01-12T09:55:22.378Z,14.40
2023-01-12T09:58:09.158Z,10.60
2023-01-12T10:00:46.617Z,11.50
2023-01-12T10:03:46.425Z,14.80
2023-01-12T10:06:54.552Z,16.40
2023-01-12T10:09:42.129Z,9.50
2023-01-12T10:12:53.857Z,16.00
2023-01-12T10:16:03.156Z,11.80
2023-01-12T10:18:48.747Z,14.30
2023-01-12T10:21:20.842Z,11.80
2023-01-12T10:27:57.383Z,9.00
2023-01-12T10:31:05.700Z,13.70
2023-01-12T10:42:47.175Z,34.90
2023-01-12T10:45:39.653Z,79.30
2023-01-12T10:48:28.782Z,54.20
2023-01-12T10:51:26.372Z,148.40
2023-01-12T10:54:33.113Z,30.20
2023-01-12T10:58:20.815Z,18.70
2023-01-12T11:01:49.216Z,39.70
2023-01-12T11:04:45.178Z,25.90
2023-01-12T11:07:56.382Z,35.60
2023-01-12T11:14:42.829Z,15.20
2023-01-12T11:18:06.163Z,10.60
2023-01-12T11:21:26.001Z,13.70
2023-01-12T11:25:40.742Z,11.40
2023-01-12T11:32:54.716Z,7.60
2023-01-12T11:36:02.534Z,5.00
2023-01-12T11:39:37.684Z,4.90
2023-01-12T11:42:43.155Z,7.00
2023-01-12T11:46:50.580Z,5.90
2023-01-12T11:50:50.325Z,8.90
2023-01-12T11:53:56.924Z,53.70
2023-01-12T11:56:50.679Z,84.20
2023-01-12T12:00:50.521Z,42.80
2023-01-12T12:16:00.848Z,27.80
2023-01-12T12:24:12.801Z,9.20
2023-01-12T12:25:28.623Z,14.80
2023-01-12T12:28:10.278Z,12.50
2023-01-12T12:32:29.462Z,11.70
2023-01-12T12:35:43.515Z,10.80
2023-01-12T12:43:28.935Z,8.40
2023-01-12T12:48:04.159Z,11.40
2023-01-12T12:50:41.275Z,15.70
2023-01-12T12:53:36.028Z,10.70
2023-01-12T12:56:10.553Z,11.60
2023-01-12T12:58:43.052Z,6.90
2023-01-12T13:01:23.458Z,5.60
2023-01-12T13:04:05.625Z,7.10
2023-01-12T13:06:38.121Z,6.80
2023-01-12T13:09:10.553Z,7.40
2023-01-12T13:11:54.151Z,8.50
2023-01-12T13:14:26.133Z,9.80
2023-01-12T13:17:00.007Z,10.60
2023-01-12T13:19:45.988Z,8.00
2023-01-12T13:22:32.598Z,6.80
2023-01-12T13:25:16.946Z,9.70
2023-01-12T13:28:00.994Z,6.90
2023-01-12T13:30:29.629Z,8.40
2023-01-12T13:33:19.941Z,7.40
2023-01-12T13:35:48.162Z,7.00
2023-01-12T13:38:39.600Z,8.40
2023-01-12T13:41:55.718Z,5.00
2023-01-12T13:44:40.706Z,5.80
2023-01-12T13:49:58.789Z,4.80
2023-01-12T13:52:32.234Z,7.60
2023-01-12T13:55:01.471Z,16.50
2023-01-12T13:57:31.388Z,13.00
2023-01-12T14:00:09.578Z,12.70
2023-01-12T14:02:41.882Z,9.80
2023-01-12T14:05:20.620Z,6.00
2023-01-12T14:08:16.858Z,5.50
2023-01-12T14:10:58.966Z,7.20
2023-01-12T14:13:27.204Z,7.70
2023-01-12T14:16:19.959Z,8.10
2023-01-12T14:18:50.623Z,5.20
2023-01-12T14:21:29.466Z,12.10
2023-01-12T14:24:17.453Z,15.50
2023-01-12T14:26:46.464Z,16.30
2023-01-12T14:29:14.933Z,16.70
2023-01-12T14:31:54.484Z,22.80
2023-01-12T14:34:35.923Z,26.40
2023-01-12T14:37:18.539Z,22.20
2023-01-12T14:39:46.896Z,22.30
2023-01-12T14:42:38.235Z,14.10
2023-01-12T14:45:40.923Z,12.70
2023-01-12T14:48:22.381Z,18.10
2023-01-12T14:51:03.071Z,13.20
2023-01-12T14:53:39.238Z,11.80
2023-01-12T14:56:33.765Z,11.60
2023-01-12T14:59:23.904Z,13.30
2023-01-12T15:01:53.245Z,12.30
2023-01-12T15:04:25.293Z,13.70
2023-01-12T15:07:05.574Z,13.50
2023-01-12T15:09:37.213Z,13.50
2023-01-12T15:12:30.923Z,16.40
2023-01-12T15:15:14.517Z,10.30
2023-01-12T15:18:02.362Z,12.20
2023-01-12T15:20:54.918Z,10.70
2023-01-12T15:23:46.712Z,10.80
2023-01-12T15:26:15.073Z,10.30
2023-01-12T15:28:44.801Z,9.60
2023-01-12T15:31:33.761Z,12.00
2023-01-12T15:34:03.579Z,10.60
2023-01-12T15:36:31.890Z,11.90
2023-01-12T15:39:00.006Z,8.60
2023-01-12T15:41:49.299Z,10.50
2023-01-12T15:44:19.913Z,11.70
2023-01-12T15:46:48.654Z,10.10
2023-01-12T15:49:17.214Z,9.70
2023-01-12T15:51:50.675Z,15.40
2023-01-12T15:54:20.564Z,15.30
2023-01-12T15:56:48.815Z,20.10
2023-01-12T15:59:16.984Z,20.60
2023-01-12T16:01:48.567Z,18.30
2023-01-12T16:04:42.255Z,14.40
2023-01-12T16:07:06.277Z,17.20
2023-01-12T16:09:34.503Z,16.50
2023-01-12T16:12:02.658Z,18.20
2023-01-12T16:14:30.862Z,24.30
2023-01-12T16:16:59.072Z,53.60
2023-01-12T16:19:28.321Z,31.20
2023-01-12T16:21:56.639Z,43.40
2023-01-12T16:24:27.008Z,106.80
2023-01-12T16:26:55.464Z,148.20
2023-01-12T16:29:24.261Z,131.50
2023-01-12T16:31:52.580Z,129.10
2023-01-12T16:34:23.626Z,117.80
2023-01-12T16:36:51.882Z,71.10
2023-01-12T16:39:20.149Z,34.70
2023-01-12T16:41:49.137Z,26.50
2023-01-12T16:44:17.471Z,28.10
2023-01-12T16:46:48.779Z,66.60
2023-01-12T16:49:16.973Z,89.90
2023-01-12T16:51:46.178Z,104.60
2023-01-12T16:54:14.532Z,91.40
2023-01-12T16:56:47.362Z,51.60
2023-01-12T16:59:15.636Z,49.80
2023-01-12T17:01:44.151Z,72.00
2023-01-12T17:04:12.796Z,92.00
2023-01-12T17:06:41.039Z,93.40
2023-01-12T17:09:09.419Z,41.20
2023-01-12T17:11:39.809Z,41.80
2023-01-12T17:14:24.383Z,87.00
2023-01-12T17:16:58.034Z,57.10
2023-01-12T17:19:27.240Z,57.70
2023-01-12T17:21:58.150Z,53.00
2023-01-12T17:24:27.590Z,52.00
2023-01-12T17:26:56.869Z,44.90
2023-01-12T17:29:27.145Z,36.70
2023-01-12T17:32:04.508Z,37.00
2023-01-12T17:34:38.448Z,29.20
2023-01-12T17:37:10.665Z,32.50
2023-01-12T17:39:40.255Z,27.80
2023-01-12T17:42:35.864Z,28.70
2023-01-12T17:45:05.097Z,31.00
2023-01-12T17:47:33.448Z,28.30
2023-01-12T17:50:01.985Z,29.70
2023-01-12T17:52:30.255Z,23.70
2023-01-12T17:54:58.658Z,26.20
2023-01-12T17:57:27.310Z,29.10
2023-01-12T17:59:55.497Z,29.70
2023-01-12T18:02:23.744Z,28.20
2023-01-12T18:04:52.086Z,27.50
2023-01-12T18:07:20.313Z,30.00
2023-01-12T18:09:48.530Z,32.40
2023-01-12T18:12:16.945Z,33.20
2023-01-12T18:14:45.227Z,26.50
2023-01-12T18:17:13.539Z,25.30
2023-01-12T18:19:42.526Z,25.30
2023-01-12T18:22:11.233Z,28.60
2023-01-12T18:24:39.488Z,31.50
2023-01-12T18:27:07.854Z,31.40
2023-01-12T18:29:36.137Z,32.40
2023-01-12T18:32:09.451Z,33.70
2023-01-12T18:34:43.204Z,25.30
2023-01-12T18:37:13.599Z,27.80
2023-01-12T18:39:44.061Z,26.00
2023-01-12T18:42:30.964Z,28.80
2023-01-12T18:44:59.796Z,30.50
2023-01-12T18:48:02.006Z,27.00
2023-01-12T18:50:50.555Z,29.10
2023-01-12T18:53:25.630Z,30.10
2023-01-12T18:55:57.440Z,26.00
2023-01-12T18:58:32.120Z,28.50
2023-01-12T19:01:07.117Z,27.20
2023-01-12T19:06:36.264Z,24.50
2023-01-12T19:09:23.286Z,25.10
2023-01-12T19:11:51.470Z,20.40
2023-01-12T19:14:38.741Z,22.90
2023-01-12T19:17:28.200Z,21.60
2023-01-12T19:19:58.288Z,20.70
2023-01-12T19:22:45.898Z,22.20
2023-01-12T19:25:38.557Z,23.50
2023-01-12T19:28:29.889Z,21.30
2023-01-12T19:31:07.833Z,20.90
2023-01-12T19:33:36.520Z,19.70
2023-01-12T19:36:10.267Z,20.40
2023-01-12T19:38:38.854Z,21.90
2023-01-12T19:41:14.295Z,23.10
2023-01-12T19:43:45.528Z,21.80
2023-01-12T19:46:14.012Z,71.60
2023-01-12T19:48:42.333Z,54.60
2023-01-12T19:51:11.272Z,44.30
2023-01-12T19:53:40.580Z,57.70
2023-01-12T19:56:13.140Z,31.60
2023-01-12T19:58:41.433Z,40.30
2023-01-12T20:01:10.388Z,38.20
2023-01-12T20:03:40.455Z,58.20
2023-01-12T20:06:09.229Z,68.90
2023-01-12T20:08:37.482Z,46.20
2023-01-12T20:11:06.157Z,49.20
2023-01-12T20:13:35.011Z,71.80
2023-01-12T20:16:07.903Z,51.30
2023-01-12T20:18:36.353Z,41.80
2023-01-12T20:21:12.544Z,40.90
2023-01-12T20:23:40.878Z,49.20
2023-01-12T20:26:11.437Z,33.90
2023-01-12T20:28:40.526Z,49.40
2023-01-12T20:31:15.895Z,51.80
2023-01-12T20:33:44.205Z,64.20
2023-01-12T20:36:15.325Z,47.60
2023-01-12T20:38:45.972Z,20.50
2023-01-12T20:41:14.370Z,17.80
2023-01-12T20:43:42.829Z,19.10
2023-01-12T20:46:13.486Z,25.10
2023-01-12T20:48:43.555Z,24.10
2023-01-12T20:51:15.434Z,22.70
2023-01-12T20:53:43.826Z,29.30
2023-01-12T20:56:12.223Z,28.20
2023-01-12T20:58:40.477Z,26.40
2023-01-12T21:01:14.469Z,23.40
2023-01-12T21:03:44.141Z,20.20
2023-01-12T21:06:15.355Z,20.10
2023-01-12T21:08:46.114Z,21.00
2023-01-12T21:11:18.431Z,19.80
2023-01-12T21:13:46.774Z,15.90
2023-01-12T21:16:18.695Z,18.60
2023-01-12T21:18:48.063Z,21.80
2023-01-12T21:21:16.838Z,20.80
2023-01-12T21:23:45.131Z,21.10
2023-01-12T21:26:13.283Z,21.70
2023-01-12T21:28:41.613Z,16.70
2023-01-12T21:31:12.433Z,18.10
2023-01-12T21:33:40.611Z,12.40
2023-01-12T21:36:12.602Z,14.50
2023-01-12T21:38:41.154Z,23.00
2023-01-12T21:41:11.562Z,20.70
2023-01-12T21:43:50.236Z,26.00
2023-01-12T21:46:19.688Z,16.70
2023-01-12T21:48:48.055Z,16.90
2023-01-12T21:51:17.280Z,65.40
2023-01-12T21:53:45.564Z,33.90
2023-01-12T21:56:13.967Z,23.70
2023-01-12T21:58:42.162Z,18.80
2023-01-12T22:01:13.566Z,20.50
2023-01-12T22:03:42.157Z,19.30
2023-01-12T22:06:12.883Z,15.70
2023-01-12T22:08:42.507Z,19.30
2023-01-12T22:11:13.376Z,16.50
2023-01-12T22:13:43.606Z,27.20
2023-01-12T22:16:15.630Z,16.40
2023-01-12T22:18:47.238Z,23.30
2023-01-12T22:21:16.897Z,20.70
2023-01-12T22:23:45.144Z,17.60
2023-01-12T22:26:14.900Z,18.70
2023-01-12T22:28:44.967Z,20.60
2023-01-12T22:31:19.365Z,15.20
2023-01-12T22:34:05.563Z,18.10
2023-01-12T22:36:43.359Z,17.20
2023-01-12T22:39:16.389Z,18.00
2023-01-12T22:41:44.659Z,15.00
2023-01-12T22:44:12.995Z,17.00
2023-01-12T22:46:41.361Z,14.90
2023-01-12T22:49:12.050Z,16.60
2023-01-12T22:51:47.240Z,20.20
2023-01-12T22:54:17.921Z,23.60
2023-01-12T22:56:46.233Z,18.20
2023-01-12T22:59:14.706Z,13.30
2023-01-12T23:01:43.527Z,13.90
2023-01-12T23:04:13.517Z,14.10
2023-01-12T23:06:41.944Z,19.60
2023-01-12T23:09:12.056Z,14.10
2023-01-12T23:11:40.510Z,31.50
2023-01-12T23:14:08.982Z,20.90
2023-01-12T23:16:37.231Z,33.10
2023-01-12T23:19:05.510Z,24.90
2023-01-12T23:21:35.748Z,16.80
2023-01-12T23:24:04.170Z,30.60
2023-01-12T23:26:33.244Z,45.70
2023-01-12T23:29:03.207Z,56.50
2023-01-12T23:31:33.525Z,50.90
2023-01-12T23:34:02.101Z,53.70
2023-01-12T23:36:31.186Z,42.70
2023-01-12T23:39:06.298Z,32.70
2023-01-12T23:44:08.363Z,24.70
2023-01-12T23:46:40.354Z,36.60
2023-01-12T23:49:10.089Z,41.30
2023-01-12T23:51:38.554Z,46.00
2023-01-12T23:54:07.878Z,57.60
2023-01-12T23:56:36.278Z,42.00
2023-01-12T23:59:04.673Z,24.70
